sensor_id;sensor_type;location;lat;lon;timestamp;temperature;humidity
20315;DHT22;10315;50.958;13.080;2023-03-01T00:04:43;-6.00;99.90
20315;DHT22;10315;50.958;13.080;2023-03-01T00:14:47;-6.10;99.90
20315;DHT22;10315;50.958;13.080;2023-03-01T00:24:48;-6.20;99.90
20315;DHT22;10315;50.958;13.080;2023-03-01T00:34:54;-6.40;99.90
20315;DHT22;10315;50.958;13.080;2023-03-01T00:44:56;-6.30;99.90
20315;DHT22;10315;50.958;13.080;2023-03-01T00:54:59;-6.00;99.90
20315;DHT22;10315;50.958;13.080;2023-03-01T01:05:01;-5.70;99.90
20315;DHT22;10315;50.958;13.080;2023-03-01T01:15:05;-6.20;99.90
20315;DHT22;10315;50.958;13.080;2023-03-01T01:25:07;-6.50;99.90
20315;DHT22;10315;50.958;13.080;2023-03-01T01:35:10;-6.70;99.90
20315;DHT22;10315;50.958;13.080;2023-03-01T01:45:33;-6.70;99.90
20315;DHT22;10315;50.958;13.080;2023-03-01T01:55:37;-6.70;99.90
20315;DHT22;10315;50.958;13.080;2023-03-01T02:05:45;-6.90;99.90
20315;DHT22;10315;50.958;13.080;2023-03-01T02:15:49;-7.10;99.90
20315;DHT22;10315;50.958;13.080;2023-03-01T02:25:55;-7.00;99.90
20315;DHT22;10315;50.958;13.080;2023-03-01T02:36:00;-7.10;99.90
20315;DHT22;10315;50.958;13.080;2023-03-01T02:46:07;-7.10;99.90
20315;DHT22;10315;50.958;13.080;2023-03-01T02:56:10;-6.90;99.90
20315;DHT22;10315;50.958;13.080;2023-03-01T03:06:13;-7.20;99.90
20315;DHT22;10315;50.958;13.080;2023-03-01T03:16:16;-7.40;99.90
20315;DHT22;10315;50.958;13.080;2023-03-01T03:26:17;-7.50;99.90
20315;DHT22;10315;50.958;13.080;2023-03-01T03:36:22;-6.80;99.90
20315;DHT22;10315;50.958;13.080;2023-03-01T03:46:24;-6.50;99.90
20315;DHT22;10315;50.958;13.080;2023-03-01T03:56:27;-7.20;99.90
20315;DHT22;10315;50.958;13.080;2023-03-01T04:06:29;-7.10;99.90
20315;DHT22;10315;50.958;13.080;2023-03-01T04:16:32;-7.30;99.90
20315;DHT22;10315;50.958;13.080;2023-03-01T04:26:33;-7.60;99.90
20315;DHT22;10315;50.958;13.080;2023-03-01T04:36:36;-7.70;99.90
20315;DHT22;10315;50.958;13.080;2023-03-01T04:46:40;-7.80;99.90
20315;DHT22;10315;50.958;13.080;2023-03-01T04:56:43;-8.10;99.90
20315;DHT22;10315;50.958;13.080;2023-03-01T05:06:44;-8.20;99.90
20315;DHT22;10315;50.958;13.080;2023-03-01T05:16:47;-8.10;99.90
20315;DHT22;10315;50.958;13.080;2023-03-01T05:26:49;-8.30;99.90
20315;DHT22;10315;50.958;13.080;2023-03-01T05:36:53;-8.30;99.90
20315;DHT22;10315;50.958;13.080;2023-03-01T05:46:55;-8.10;99.90
20315;DHT22;10315;50.958;13.080;2023-03-01T05:56:58;-8.00;99.90
20315;DHT22;10315;50.958;13.080;2023-03-01T06:06:59;-8.10;99.90
20315;DHT22;10315;50.958;13.080;2023-03-01T06:17:02;-7.90;99.90
20315;DHT22;10315;50.958;13.080;2023-03-01T06:27:04;-7.60;99.90
20315;DHT22;10315;50.958;13.080;2023-03-01T06:37:07;-7.00;99.90
20315;DHT22;10315;50.958;13.080;2023-03-01T06:47:09;-5.90;99.90
20315;DHT22;10315;50.958;13.080;2023-03-01T06:57:12;-4.80;99.90
20315;DHT22;10315;50.958;13.080;2023-03-01T07:07:13;-3.30;99.90
20315;DHT22;10315;50.958;13.080;2023-03-01T07:17:16;-1.80;99.90
20315;DHT22;10315;50.958;13.080;2023-03-01T07:27:19;-0.40;99.90
20315;DHT22;10315;50.958;13.080;2023-03-01T07:37:22;0.00;99.90
20315;DHT22;10315;50.958;13.080;2023-03-01T07:47:25;8.10;99.90
20315;DHT22;10315;50.958;13.080;2023-03-01T07:57:28;8.00;99.90
20315;DHT22;10315;50.958;13.080;2023-03-01T08:07:31;7.20;99.90
20315;DHT22;10315;50.958;13.080;2023-03-01T08:17:35;9.80;97.60
20315;DHT22;10315;50.958;13.080;2023-03-01T08:27:37;7.50;99.90
20315;DHT22;10315;50.958;13.080;2023-03-01T08:37:39;10.10;95.80
20315;DHT22;10315;50.958;13.080;2023-03-01T08:47:41;13.80;87.10
20315;DHT22;10315;50.958;13.080;2023-03-01T08:57:44;12.00;88.20
20315;DHT22;10315;50.958;13.080;2023-03-01T09:07:45;6.90;99.90
20315;DHT22;10315;50.958;13.080;2023-03-01T09:17:48;4.30;99.90
20315;DHT22;10315;50.958;13.080;2023-03-01T09:27:50;4.20;99.90
20315;DHT22;10315;50.958;13.080;2023-03-01T09:37:53;4.00;99.90
20315;DHT22;10315;50.958;13.080;2023-03-01T09:47:55;4.60;99.90
20315;DHT22;10315;50.958;13.080;2023-03-01T09:58:04;3.70;99.90
20315;DHT22;10315;50.958;13.080;2023-03-01T10:08:31;3.70;99.90
20315;DHT22;10315;50.958;13.080;2023-03-01T10:18:37;3.00;99.90
20315;DHT22;10315;50.958;13.080;2023-03-01T10:28:48;3.90;99.90
20315;DHT22;10315;50.958;13.080;2023-03-01T10:38:53;4.00;99.90
20315;DHT22;10315;50.958;13.080;2023-03-01T10:49:15;3.30;99.90
20315;DHT22;10315;50.958;13.080;2023-03-01T10:59:25;3.90;99.90
20315;DHT22;10315;50.958;13.080;2023-03-01T11:09:36;3.90;99.90
20315;DHT22;10315;50.958;13.080;2023-03-01T11:19:40;4.10;99.90
20315;DHT22;10315;50.958;13.080;2023-03-01T11:29:44;4.70;99.90
20315;DHT22;10315;50.958;13.080;2023-03-01T11:39:53;4.40;99.90
20315;DHT22;10315;50.958;13.080;2023-03-01T11:50:10;5.00;99.90
20315;DHT22;10315;50.958;13.080;2023-03-01T12:00:25;5.10;99.90
20315;DHT22;10315;50.958;13.080;2023-03-01T12:10:36;4.90;99.90
20315;DHT22;10315;50.958;13.080;2023-03-01T12:20:49;4.90;99.90
20315;DHT22;10315;50.958;13.080;2023-03-01T12:41:43;5.00;99.90
20315;DHT22;10315;50.958;13.080;2023-03-01T12:51:51;5.10;99.90
20315;DHT22;10315;50.958;13.080;2023-03-01T13:02:02;5.30;99.90
20315;DHT22;10315;50.958;13.080;2023-03-01T13:22:48;3.90;99.90
20315;DHT22;10315;50.958;13.080;2023-03-01T13:43:51;4.20;99.90
20315;DHT22;10315;50.958;13.080;2023-03-01T13:53:55;4.80;99.90
20315;DHT22;10315;50.958;13.080;2023-03-01T14:04:00;4.80;99.90
20315;DHT22;10315;50.958;13.080;2023-03-01T14:14:11;4.30;99.90
20315;DHT22;10315;50.958;13.080;2023-03-01T14:24:21;4.00;99.90
20315;DHT22;10315;50.958;13.080;2023-03-01T14:34:24;4.50;99.90
20315;DHT22;10315;50.958;13.080;2023-03-01T14:44:27;4.50;99.90
20315;DHT22;10315;50.958;13.080;2023-03-01T14:54:35;4.30;99.90
20315;DHT22;10315;50.958;13.080;2023-03-01T15:04:41;4.00;99.90
20315;DHT22;10315;50.958;13.080;2023-03-01T15:14:44;3.70;99.90
20315;DHT22;10315;50.958;13.080;2023-03-01T15:24:50;3.70;99.90
20315;DHT22;10315;50.958;13.080;2023-03-01T15:34:52;3.70;99.90
20315;DHT22;10315;50.958;13.080;2023-03-01T15:45:09;3.40;99.90
20315;DHT22;10315;50.958;13.080;2023-03-01T15:55:16;3.10;99.90
20315;DHT22;10315;50.958;13.080;2023-03-01T16:05:22;2.90;99.90
20315;DHT22;10315;50.958;13.080;2023-03-01T16:15:27;2.80;99.90
20315;DHT22;10315;50.958;13.080;2023-03-01T16:25:31;2.40;99.90
20315;DHT22;10315;50.958;13.080;2023-03-01T16:35:33;1.90;99.90
20315;DHT22;10315;50.958;13.080;2023-03-01T16:45:41;1.60;99.90
20315;DHT22;10315;50.958;13.080;2023-03-01T16:55:45;1.40;99.90
20315;DHT22;10315;50.958;13.080;2023-03-01T17:05:55;1.10;99.90
20315;DHT22;10315;50.958;13.080;2023-03-01T17:15:56;0.90;99.90
20315;DHT22;10315;50.958;13.080;2023-03-01T17:25:59;0.50;99.90
20315;DHT22;10315;50.958;13.080;2023-03-01T17:36:01;0.30;99.90
20315;DHT22;10315;50.958;13.080;2023-03-01T17:46:04;0.30;99.90
20315;DHT22;10315;50.958;13.080;2023-03-01T17:56:06;0.10;99.90
20315;DHT22;10315;50.958;13.080;2023-03-01T18:06:12;-0.20;99.90
20315;DHT22;10315;50.958;13.080;2023-03-01T18:16:15;-0.30;99.90
20315;DHT22;10315;50.958;13.080;2023-03-01T18:26:19;-0.10;99.90
20315;DHT22;10315;50.958;13.080;2023-03-01T18:36:23;-0.10;99.90
20315;DHT22;10315;50.958;13.080;2023-03-01T18:46:26;-0.30;99.90
20315;DHT22;10315;50.958;13.080;2023-03-01T18:56:29;-0.40;99.90
20315;DHT22;10315;50.958;13.080;2023-03-01T19:06:33;-0.60;99.90
20315;DHT22;10315;50.958;13.080;2023-03-01T19:16:35;-0.90;99.90
20315;DHT22;10315;50.958;13.080;2023-03-01T19:26:37;-1.20;99.90
20315;DHT22;10315;50.958;13.080;2023-03-01T19:36:43;-1.30;99.90
20315;DHT22;10315;50.958;13.080;2023-03-01T19:46:46;-1.30;99.90
20315;DHT22;10315;50.958;13.080;2023-03-01T19:56:48;-1.30;99.90
20315;DHT22;10315;50.958;13.080;2023-03-01T20:06:52;-1.80;99.90
20315;DHT22;10315;50.958;13.080;2023-03-01T20:16:53;-2.10;99.90
20315;DHT22;10315;50.958;13.080;2023-03-01T20:26:56;-1.90;99.90
20315;DHT22;10315;50.958;13.080;2023-03-01T20:36:58;-1.60;99.90
20315;DHT22;10315;50.958;13.080;2023-03-01T20:47:01;-1.70;99.90
20315;DHT22;10315;50.958;13.080;2023-03-01T20:57:02;-1.70;99.90
20315;DHT22;10315;50.958;13.080;2023-03-01T21:07:05;-1.70;99.90
20315;DHT22;10315;50.958;13.080;2023-03-01T21:17:08;-1.70;99.90
20315;DHT22;10315;50.958;13.080;2023-03-01T21:27:11;-1.70;99.90
20315;DHT22;10315;50.958;13.080;2023-03-01T21:37:12;-1.80;99.90
20315;DHT22;10315;50.958;13.080;2023-03-01T21:47:15;-1.70;99.90
20315;DHT22;10315;50.958;13.080;2023-03-01T21:57:17;-1.80;99.90
20315;DHT22;10315;50.958;13.080;2023-03-01T22:07:20;-1.80;99.90
20315;DHT22;10315;50.958;13.080;2023-03-01T22:17:22;-1.90;99.90
20315;DHT22;10315;50.958;13.080;2023-03-01T22:27:25;-1.90;99.90
20315;DHT22;10315;50.958;13.080;2023-03-01T22:37:26;-1.80;99.90
20315;DHT22;10315;50.958;13.080;2023-03-01T22:47:29;-1.80;99.90
20315;DHT22;10315;50.958;13.080;2023-03-01T22:57:31;-2.00;99.90
20315;DHT22;10315;50.958;13.080;2023-03-01T23:07:34;-2.20;99.90
20315;DHT22;10315;50.958;13.080;2023-03-01T23:17:37;-2.30;99.90
20315;DHT22;10315;50.958;13.080;2023-03-01T23:27:40;-2.40;99.90
20315;DHT22;10315;50.958;13.080;2023-03-01T23:37:41;-2.50;99.90
20315;DHT22;10315;50.958;13.080;2023-03-01T23:47:45;-2.60;99.90
20315;DHT22;10315;50.958;13.080;2023-03-01T23:57:47;-2.60;99.90
